galeriedesade.com alexa rank chart, galeriedesade.com alexa rank daily changes

galeriedesade.com alexa rank chart, galeriedesade.com alexa rank daily changes

galeriedesade.com
Actual rank:
173 720

RANK HISTORY

Date Rank Diff
2016/12/08 173 720 -1 148
2016/12/07 174 868 -2 831
2016/12/06 177 699 -5 113
2016/12/05 182 812 -396
2016/12/04 183 208 +538
2016/12/02 182 670 -4 140
2016/12/01 186 810 +1 267
2016/11/30 185 543 -41
2016/11/29 185 584 +3 513
2016/11/28 182 071 +2 530
2016/11/27 179 541 +2 116
2016/11/26 177 425 -2 249
2016/11/25 179 674 -3 477
2016/11/24 183 151 +903
2016/11/23 182 248 -2 671
2016/11/19 184 919 +8 002
2016/11/18 176 917 +3 258
2016/11/17 173 659 -4 449
2016/11/16 178 108 -1 551
2016/11/15 179 659 +1 117
2016/11/14 178 542 +3 519
2016/11/13 175 023 +708
2016/11/12 174 315 +7 262
2016/11/11 167 053 -843
2016/11/10 167 896 +1 842
2016/11/09 166 054 +1 429
2016/11/08 164 625 +4 212
2016/11/07 160 413 +3 923
2016/11/06 156 490 +2 351
2016/11/05 154 139 +3 357
2016/11/04 150 782 -3 608
2016/11/03 154 390 -2 327
2016/11/02 156 717 +8 223
2016/11/01 148 494 -2 044
2016/10/31 150 538 +4 229
2016/10/30 146 309 +1 546
2016/10/29 144 763 +2 491
2016/10/28 142 272 -1 833
2016/10/27 144 105 +1 920
2016/10/26 142 185 +4 237
2016/10/25 137 948 -66
2016/10/24 138 014 -2 482
2016/10/23 140 496 -579
2016/10/22 141 075 +6 231
2016/10/21 134 844 +3 779
2016/10/20 131 065 +392
2016/10/19 130 673 -617
2016/10/18 131 290 +440
2016/10/17 130 850 +963
2016/10/16 129 887 -510
2016/10/15 130 397 -18 758
2016/10/14 149 155 -1 796
2016/10/13 150 951 +3 245
2016/10/12 147 706 -2 835
2016/10/11 150 541 -9 863
2016/10/10 160 404 -6 376
2016/10/09 166 780

WIDGET FOR YOUR SITE

DOMAINS WITH THE NEAREST RANK

Domain Rank
barilla.com 173 715
guiadobebe.uol.com.br 173 716
socprka.ru 173 717
creative-chemistry.org.uk 173 718
easyvn.com 173 719
galeriedesade.com 173 720
20xs.cc 173 721
chakri24.com 173 722
jeux-geographiques.com 173 723
dewereldmorgen.be 173 724
coloring-book.biz 173 725

DOMAINS WITH THE NEAREST RANK BY TLD .com

Domain Rank
boonieplanet.com 173 708
ilovekasi.com 173 712
shoutcart.com 173 714
barilla.com 173 715
easyvn.com 173 719
galeriedesade.com 173 720
chakri24.com 173 722
jeux-geographiques.com 173 723
raped-moms.com 173 728
uipath.com 173 730
nop-templates.com 173 731